sensor_id;sensor_type;location;lat;lon;timestamp;P1;durP1;ratioP1;P2;durP2;ratioP2
71038;SDS011;58692;43.212;27.908;2023-05-09T00:01:04;10.07;;;4.28;;
71038;SDS011;58692;43.212;27.908;2023-05-09T00:03:31;7.13;;;4.05;;
71038;SDS011;58692;43.212;27.908;2023-05-09T00:05:57;8.10;;;4.13;;
71038;SDS011;58692;43.212;27.908;2023-05-09T00:08:22;8.07;;;4.13;;
71038;SDS011;58692;43.212;27.908;2023-05-09T00:10:48;8.30;;;3.78;;
71038;SDS011;58692;43.212;27.908;2023-05-09T00:13:13;10.50;;;4.20;;
71038;SDS011;58692;43.212;27.908;2023-05-09T00:15:39;10.57;;;4.40;;
71038;SDS011;58692;43.212;27.908;2023-05-09T00:18:04;8.40;;;3.92;;
71038;SDS011;58692;43.212;27.908;2023-05-09T00:20:30;9.43;;;4.30;;
71038;SDS011;58692;43.212;27.908;2023-05-09T00:22:57;9.27;;;4.10;;
71038;SDS011;58692;43.212;27.908;2023-05-09T00:25:23;8.20;;;3.60;;
71038;SDS011;58692;43.212;27.908;2023-05-09T00:27:49;8.13;;;3.75;;
71038;SDS011;58692;43.212;27.908;2023-05-09T00:30:14;8.20;;;3.97;;
71038;SDS011;58692;43.212;27.908;2023-05-09T00:32:40;8.88;;;4.07;;
71038;SDS011;58692;43.212;27.908;2023-05-09T00:35:06;8.70;;;4.37;;
71038;SDS011;58692;43.212;27.908;2023-05-09T00:37:32;8.65;;;3.95;;
71038;SDS011;58692;43.212;27.908;2023-05-09T00:39:58;9.67;;;4.40;;
71038;SDS011;58692;43.212;27.908;2023-05-09T00:42:23;9.37;;;3.80;;
71038;SDS011;58692;43.212;27.908;2023-05-09T00:44:49;11.75;;;5.00;;
71038;SDS011;58692;43.212;27.908;2023-05-09T00:47:14;8.27;;;4.20;;
71038;SDS011;58692;43.212;27.908;2023-05-09T00:49:40;10.07;;;4.90;;
71038;SDS011;58692;43.212;27.908;2023-05-09T00:52:05;9.57;;;4.40;;
71038;SDS011;58692;43.212;27.908;2023-05-09T00:54:31;8.43;;;4.13;;
71038;SDS011;58692;43.212;27.908;2023-05-09T00:56:56;8.83;;;4.60;;
71038;SDS011;58692;43.212;27.908;2023-05-09T00:59:22;9.93;;;5.03;;
71038;SDS011;58692;43.212;27.908;2023-05-09T01:01:48;9.13;;;4.60;;
71038;SDS011;58692;43.212;27.908;2023-05-09T01:04:13;9.63;;;4.55;;
71038;SDS011;58692;43.212;27.908;2023-05-09T01:09:45;9.20;;;4.80;;
71038;SDS011;58692;43.212;27.908;2023-05-09T01:12:21;9.93;;;4.82;;
71038;SDS011;58692;43.212;27.908;2023-05-09T01:15:05;10.32;;;4.90;;
71038;SDS011;58692;43.212;27.908;2023-05-09T01:22:51;9.02;;;4.47;;
71038;SDS011;58692;43.212;27.908;2023-05-09T01:31:12;9.70;;;4.18;;
71038;SDS011;58692;43.212;27.908;2023-05-09T01:33:39;8.70;;;3.97;;
71038;SDS011;58692;43.212;27.908;2023-05-09T01:36:16;8.45;;;3.95;;
71038;SDS011;58692;43.212;27.908;2023-05-09T01:38:43;7.90;;;4.00;;
71038;SDS011;58692;43.212;27.908;2023-05-09T01:41:14;9.55;;;4.35;;
71038;SDS011;58692;43.212;27.908;2023-05-09T01:43:41;7.65;;;3.75;;
71038;SDS011;58692;43.212;27.908;2023-05-09T01:46:09;9.60;;;4.60;;
71038;SDS011;58692;43.212;27.908;2023-05-09T01:48:36;8.60;;;3.80;;
71038;SDS011;58692;43.212;27.908;2023-05-09T01:51:03;9.32;;;4.03;;
71038;SDS011;58692;43.212;27.908;2023-05-09T01:53:30;10.25;;;4.43;;
71038;SDS011;58692;43.212;27.908;2023-05-09T01:55:57;9.90;;;4.22;;
71038;SDS011;58692;43.212;27.908;2023-05-09T01:58:24;10.73;;;4.23;;
71038;SDS011;58692;43.212;27.908;2023-05-09T02:00:52;10.48;;;4.57;;
71038;SDS011;58692;43.212;27.908;2023-05-09T02:03:17;8.93;;;4.63;;
71038;SDS011;58692;43.212;27.908;2023-05-09T02:05:44;9.48;;;4.57;;
71038;SDS011;58692;43.212;27.908;2023-05-09T02:08:11;10.80;;;5.20;;
71038;SDS011;58692;43.212;27.908;2023-05-09T02:10:39;10.63;;;4.60;;
71038;SDS011;58692;43.212;27.908;2023-05-09T02:13:05;13.60;;;4.78;;
71038;SDS011;58692;43.212;27.908;2023-05-09T02:15:31;11.67;;;5.17;;
71038;SDS011;58692;43.212;27.908;2023-05-09T02:17:57;9.93;;;4.93;;
71038;SDS011;58692;43.212;27.908;2023-05-09T02:20:22;10.27;;;5.10;;
71038;SDS011;58692;43.212;27.908;2023-05-09T02:22:48;11.02;;;5.07;;
71038;SDS011;58692;43.212;27.908;2023-05-09T02:25:14;12.33;;;5.90;;
71038;SDS011;58692;43.212;27.908;2023-05-09T02:27:40;10.73;;;5.38;;
71038;SDS011;58692;43.212;27.908;2023-05-09T02:30:10;10.88;;;5.78;;
71038;SDS011;58692;43.212;27.908;2023-05-09T02:32:41;12.02;;;5.57;;
71038;SDS011;58692;43.212;27.908;2023-05-09T02:35:09;11.27;;;5.70;;
71038;SDS011;58692;43.212;27.908;2023-05-09T02:37:36;10.88;;;5.20;;
71038;SDS011;58692;43.212;27.908;2023-05-09T02:40:04;10.20;;;5.40;;
71038;SDS011;58692;43.212;27.908;2023-05-09T02:42:33;12.35;;;6.18;;
71038;SDS011;58692;43.212;27.908;2023-05-09T02:44:58;11.93;;;5.90;;
71038;SDS011;58692;43.212;27.908;2023-05-09T02:47:24;10.77;;;5.57;;
71038;SDS011;58692;43.212;27.908;2023-05-09T02:49:50;12.67;;;6.20;;
71038;SDS011;58692;43.212;27.908;2023-05-09T02:52:15;11.90;;;6.07;;
71038;SDS011;58692;43.212;27.908;2023-05-09T02:54:41;13.00;;;6.97;;
71038;SDS011;58692;43.212;27.908;2023-05-09T02:57:06;10.60;;;5.43;;
71038;SDS011;58692;43.212;27.908;2023-05-09T02:59:32;13.20;;;6.32;;
71038;SDS011;58692;43.212;27.908;2023-05-09T03:01:57;11.77;;;6.10;;
71038;SDS011;58692;43.212;27.908;2023-05-09T03:04:23;10.85;;;6.00;;
71038;SDS011;58692;43.212;27.908;2023-05-09T03:06:49;12.57;;;6.17;;
71038;SDS011;58692;43.212;27.908;2023-05-09T03:09:15;10.60;;;5.40;;
71038;SDS011;58692;43.212;27.908;2023-05-09T03:11:41;11.57;;;6.47;;
71038;SDS011;58692;43.212;27.908;2023-05-09T03:14:06;10.43;;;5.55;;
71038;SDS011;58692;43.212;27.908;2023-05-09T03:16:32;12.35;;;5.90;;
71038;SDS011;58692;43.212;27.908;2023-05-09T03:18:58;11.70;;;6.00;;
71038;SDS011;58692;43.212;27.908;2023-05-09T03:21:24;10.95;;;6.03;;
71038;SDS011;58692;43.212;27.908;2023-05-09T03:23:50;10.90;;;6.17;;
71038;SDS011;58692;43.212;27.908;2023-05-09T03:26:15;10.07;;;5.80;;
71038;SDS011;58692;43.212;27.908;2023-05-09T03:28:40;10.52;;;5.63;;
71038;SDS011;58692;43.212;27.908;2023-05-09T03:31:06;13.13;;;5.50;;
71038;SDS011;58692;43.212;27.908;2023-05-09T03:33:31;10.40;;;5.47;;
71038;SDS011;58692;43.212;27.908;2023-05-09T03:35:57;9.55;;;5.57;;
71038;SDS011;58692;43.212;27.908;2023-05-09T03:38:22;11.63;;;6.03;;
71038;SDS011;58692;43.212;27.908;2023-05-09T03:40:49;11.10;;;5.40;;
71038;SDS011;58692;43.212;27.908;2023-05-09T03:43:15;10.75;;;5.90;;
71038;SDS011;58692;43.212;27.908;2023-05-09T03:45:40;11.43;;;5.30;;
71038;SDS011;58692;43.212;27.908;2023-05-09T03:48:06;10.70;;;5.33;;
71038;SDS011;58692;43.212;27.908;2023-05-09T03:50:34;9.68;;;4.90;;
71038;SDS011;58692;43.212;27.908;2023-05-09T03:52:59;12.90;;;5.37;;
71038;SDS011;58692;43.212;27.908;2023-05-09T03:55:25;11.75;;;5.32;;
71038;SDS011;58692;43.212;27.908;2023-05-09T03:57:52;9.32;;;5.25;;
71038;SDS011;58692;43.212;27.908;2023-05-09T04:00:18;10.55;;;5.25;;
71038;SDS011;58692;43.212;27.908;2023-05-09T04:02:44;10.57;;;4.87;;
71038;SDS011;58692;43.212;27.908;2023-05-09T04:05:09;10.52;;;5.65;;
71038;SDS011;58692;43.212;27.908;2023-05-09T04:07:35;12.07;;;5.17;;
71038;SDS011;58692;43.212;27.908;2023-05-09T04:10:01;9.52;;;5.05;;
71038;SDS011;58692;43.212;27.908;2023-05-09T04:12:27;10.40;;;5.13;;
71038;SDS011;58692;43.212;27.908;2023-05-09T04:14:52;11.25;;;5.60;;
71038;SDS011;58692;43.212;27.908;2023-05-09T04:17:18;11.73;;;5.93;;
71038;SDS011;58692;43.212;27.908;2023-05-09T04:19:49;10.10;;;5.57;;
71038;SDS011;58692;43.212;27.908;2023-05-09T04:22:15;11.60;;;5.37;;
71038;SDS011;58692;43.212;27.908;2023-05-09T04:24:41;10.00;;;5.80;;
71038;SDS011;58692;43.212;27.908;2023-05-09T04:27:06;11.97;;;5.80;;
71038;SDS011;58692;43.212;27.908;2023-05-09T04:29:32;11.88;;;5.85;;
71038;SDS011;58692;43.212;27.908;2023-05-09T04:31:59;10.43;;;5.35;;
71038;SDS011;58692;43.212;27.908;2023-05-09T04:34:25;11.80;;;6.07;;
71038;SDS011;58692;43.212;27.908;2023-05-09T04:36:52;11.23;;;6.18;;
71038;SDS011;58692;43.212;27.908;2023-05-09T04:39:17;10.90;;;5.60;;
71038;SDS011;58692;43.212;27.908;2023-05-09T04:41:43;10.35;;;5.60;;
71038;SDS011;58692;43.212;27.908;2023-05-09T04:44:12;9.50;;;5.40;;
71038;SDS011;58692;43.212;27.908;2023-05-09T04:46:38;9.93;;;5.28;;
71038;SDS011;58692;43.212;27.908;2023-05-09T04:49:04;10.27;;;6.28;;
71038;SDS011;58692;43.212;27.908;2023-05-09T04:51:30;10.88;;;5.53;;
71038;SDS011;58692;43.212;27.908;2023-05-09T04:53:55;11.97;;;6.17;;
71038;SDS011;58692;43.212;27.908;2023-05-09T04:56:21;11.07;;;6.05;;
71038;SDS011;58692;43.212;27.908;2023-05-09T04:58:47;13.10;;;6.37;;
71038;SDS011;58692;43.212;27.908;2023-05-09T05:01:12;11.05;;;5.40;;
71038;SDS011;58692;43.212;27.908;2023-05-09T05:03:38;11.37;;;5.53;;
71038;SDS011;58692;43.212;27.908;2023-05-09T05:06:04;10.63;;;5.30;;
71038;SDS011;58692;43.212;27.908;2023-05-09T05:08:30;10.87;;;6.13;;
71038;SDS011;58692;43.212;27.908;2023-05-09T05:10:56;9.75;;;5.50;;
71038;SDS011;58692;43.212;27.908;2023-05-09T05:13:21;13.20;;;6.00;;
71038;SDS011;58692;43.212;27.908;2023-05-09T05:15:48;10.52;;;5.43;;
71038;SDS011;58692;43.212;27.908;2023-05-09T05:18:14;9.30;;;5.40;;
71038;SDS011;58692;43.212;27.908;2023-05-09T05:20:40;13.10;;;5.22;;
71038;SDS011;58692;43.212;27.908;2023-05-09T05:23:08;10.43;;;5.20;;
71038;SDS011;58692;43.212;27.908;2023-05-09T05:25:34;11.25;;;5.18;;
71038;SDS011;58692;43.212;27.908;2023-05-09T05:28:00;10.80;;;4.90;;
71038;SDS011;58692;43.212;27.908;2023-05-09T05:30:26;14.27;;;5.38;;
71038;SDS011;58692;43.212;27.908;2023-05-09T05:32:51;10.07;;;5.13;;
71038;SDS011;58692;43.212;27.908;2023-05-09T05:35:17;9.57;;;4.70;;
71038;SDS011;58692;43.212;27.908;2023-05-09T05:37:43;10.93;;;5.30;;
71038;SDS011;58692;43.212;27.908;2023-05-09T05:40:09;10.75;;;5.10;;
71038;SDS011;58692;43.212;27.908;2023-05-09T05:42:35;11.30;;;5.00;;
71038;SDS011;58692;43.212;27.908;2023-05-09T05:45:01;11.10;;;4.87;;
71038;SDS011;58692;43.212;27.908;2023-05-09T05:47:30;10.65;;;4.32;;
71038;SDS011;58692;43.212;27.908;2023-05-09T05:49:57;8.85;;;4.60;;
71038;SDS011;58692;43.212;27.908;2023-05-09T05:52:23;10.17;;;4.47;;
71038;SDS011;58692;43.212;27.908;2023-05-09T05:54:49;10.15;;;4.63;;
71038;SDS011;58692;43.212;27.908;2023-05-09T05:57:27;12.23;;;4.70;;
71038;SDS011;58692;43.212;27.908;2023-05-09T05:59:52;11.93;;;4.50;;
71038;SDS011;58692;43.212;27.908;2023-05-09T06:02:18;10.15;;;4.53;;
71038;SDS011;58692;43.212;27.908;2023-05-09T06:04:43;9.77;;;4.40;;
71038;SDS011;58692;43.212;27.908;2023-05-09T06:07:20;10.70;;;4.67;;
71038;SDS011;58692;43.212;27.908;2023-05-09T06:09:46;8.85;;;4.10;;
71038;SDS011;58692;43.212;27.908;2023-05-09T06:12:15;9.10;;;4.20;;
71038;SDS011;58692;43.212;27.908;2023-05-09T06:14:41;8.93;;;4.32;;
71038;SDS011;58692;43.212;27.908;2023-05-09T06:17:07;11.37;;;4.53;;
71038;SDS011;58692;43.212;27.908;2023-05-09T06:19:33;9.65;;;4.03;;
71038;SDS011;58692;43.212;27.908;2023-05-09T06:21:58;10.50;;;4.40;;
71038;SDS011;58692;43.212;27.908;2023-05-09T06:24:27;8.25;;;4.20;;
71038;SDS011;58692;43.212;27.908;2023-05-09T06:26:53;10.23;;;4.15;;
71038;SDS011;58692;43.212;27.908;2023-05-09T06:29:18;9.80;;;4.17;;
71038;SDS011;58692;43.212;27.908;2023-05-09T06:31:44;7.00;;;4.20;;
71038;SDS011;58692;43.212;27.908;2023-05-09T06:34:10;7.03;;;3.60;;
71038;SDS011;58692;43.212;27.908;2023-05-09T06:36:38;9.68;;;4.03;;
71038;SDS011;58692;43.212;27.908;2023-05-09T06:39:06;8.17;;;4.20;;
71038;SDS011;58692;43.212;27.908;2023-05-09T06:41:32;10.63;;;4.47;;
71038;SDS011;58692;43.212;27.908;2023-05-09T06:43:57;11.10;;;4.47;;
71038;SDS011;58692;43.212;27.908;2023-05-09T06:46:23;14.13;;;4.63;;
71038;SDS011;58692;43.212;27.908;2023-05-09T06:48:48;8.83;;;4.37;;
71038;SDS011;58692;43.212;27.908;2023-05-09T06:51:14;10.00;;;4.70;;
71038;SDS011;58692;43.212;27.908;2023-05-09T06:53:40;10.18;;;5.10;;
71038;SDS011;58692;43.212;27.908;2023-05-09T06:56:05;9.83;;;4.80;;
71038;SDS011;58692;43.212;27.908;2023-05-09T06:58:31;9.63;;;4.60;;
71038;SDS011;58692;43.212;27.908;2023-05-09T07:00:57;9.63;;;4.93;;
71038;SDS011;58692;43.212;27.908;2023-05-09T07:03:23;8.43;;;4.68;;
71038;SDS011;58692;43.212;27.908;2023-05-09T07:05:50;8.38;;;4.68;;
71038;SDS011;58692;43.212;27.908;2023-05-09T07:08:16;12.13;;;4.40;;
71038;SDS011;58692;43.212;27.908;2023-05-09T07:10:42;8.43;;;4.22;;
71038;SDS011;58692;43.212;27.908;2023-05-09T07:13:08;10.00;;;4.33;;
71038;SDS011;58692;43.212;27.908;2023-05-09T07:15:34;8.70;;;4.13;;
71038;SDS011;58692;43.212;27.908;2023-05-09T07:18:03;9.32;;;3.67;;
71038;SDS011;58692;43.212;27.908;2023-05-09T07:20:54;9.57;;;4.20;;
71038;SDS011;58692;43.212;27.908;2023-05-09T07:23:19;9.13;;;4.47;;
71038;SDS011;58692;43.212;27.908;2023-05-09T07:25:45;11.05;;;4.20;;
71038;SDS011;58692;43.212;27.908;2023-05-09T07:28:11;10.27;;;4.33;;
71038;SDS011;58692;43.212;27.908;2023-05-09T07:30:37;10.82;;;4.28;;
71038;SDS011;58692;43.212;27.908;2023-05-09T07:33:12;7.55;;;4.35;;
71038;SDS011;58692;43.212;27.908;2023-05-09T07:35:40;7.73;;;4.23;;
71038;SDS011;58692;43.212;27.908;2023-05-09T07:38:23;9.25;;;4.20;;
71038;SDS011;58692;43.212;27.908;2023-05-09T07:40:49;9.95;;;4.55;;
71038;SDS011;58692;43.212;27.908;2023-05-09T07:43:17;11.07;;;4.20;;
71038;SDS011;58692;43.212;27.908;2023-05-09T07:45:52;7.85;;;4.45;;
71038;SDS011;58692;43.212;27.908;2023-05-09T07:48:20;9.57;;;4.90;;
71038;SDS011;58692;43.212;27.908;2023-05-09T07:50:46;8.73;;;4.53;;
71038;SDS011;58692;43.212;27.908;2023-05-09T07:53:11;8.13;;;4.20;;
71038;SDS011;58692;43.212;27.908;2023-05-09T07:55:37;9.73;;;4.30;;
71038;SDS011;58692;43.212;27.908;2023-05-09T07:58:02;9.02;;;4.18;;
71038;SDS011;58692;43.212;27.908;2023-05-09T08:00:28;11.43;;;4.40;;
71038;SDS011;58692;43.212;27.908;2023-05-09T08:02:53;8.83;;;4.77;;
71038;SDS011;58692;43.212;27.908;2023-05-09T08:05:19;8.95;;;4.70;;
71038;SDS011;58692;43.212;27.908;2023-05-09T08:07:44;9.57;;;3.83;;
71038;SDS011;58692;43.212;27.908;2023-05-09T08:10:10;8.37;;;4.30;;
71038;SDS011;58692;43.212;27.908;2023-05-09T08:12:36;10.13;;;4.28;;
71038;SDS011;58692;43.212;27.908;2023-05-09T08:15:02;9.38;;;4.85;;
71038;SDS011;58692;43.212;27.908;2023-05-09T08:17:29;8.98;;;4.35;;
71038;SDS011;58692;43.212;27.908;2023-05-09T08:19:55;8.47;;;4.40;;
71038;SDS011;58692;43.212;27.908;2023-05-09T08:22:20;9.90;;;4.40;;
71038;SDS011;58692;43.212;27.908;2023-05-09T08:24:46;7.40;;;4.03;;
71038;SDS011;58692;43.212;27.908;2023-05-09T08:27:12;9.40;;;4.63;;
71038;SDS011;58692;43.212;27.908;2023-05-09T08:29:38;8.80;;;3.83;;
71038;SDS011;58692;43.212;27.908;2023-05-09T08:32:04;8.70;;;3.75;;
71038;SDS011;58692;43.212;27.908;2023-05-09T08:34:30;8.23;;;3.30;;
71038;SDS011;58692;43.212;27.908;2023-05-09T08:36:59;9.65;;;3.83;;
71038;SDS011;58692;43.212;27.908;2023-05-09T08:39:25;10.48;;;4.00;;
71038;SDS011;58692;43.212;27.908;2023-05-09T08:41:59;8.77;;;4.10;;
71038;SDS011;58692;43.212;27.908;2023-05-09T08:44:26;11.13;;;4.60;;
71038;SDS011;58692;43.212;27.908;2023-05-09T08:46:54;13.13;;;4.28;;
71038;SDS011;58692;43.212;27.908;2023-05-09T08:49:23;9.73;;;4.40;;
71038;SDS011;58692;43.212;27.908;2023-05-09T08:51:48;9.68;;;4.10;;
71038;SDS011;58692;43.212;27.908;2023-05-09T08:54:15;10.67;;;4.33;;
71038;SDS011;58692;43.212;27.908;2023-05-09T08:56:41;8.50;;;4.05;;
71038;SDS011;58692;43.212;27.908;2023-05-09T08:59:07;8.40;;;3.88;;
71038;SDS011;58692;43.212;27.908;2023-05-09T09:01:33;7.47;;;3.78;;
71038;SDS011;58692;43.212;27.908;2023-05-09T09:04:00;8.00;;;3.83;;
71038;SDS011;58692;43.212;27.908;2023-05-09T09:06:29;10.35;;;3.53;;
71038;SDS011;58692;43.212;27.908;2023-05-09T09:08:59;7.00;;;3.78;;
71038;SDS011;58692;43.212;27.908;2023-05-09T09:11:28;7.55;;;3.47;;
71038;SDS011;58692;43.212;27.908;2023-05-09T09:13:55;10.10;;;3.75;;
71038;SDS011;58692;43.212;27.908;2023-05-09T09:16:25;9.30;;;4.30;;
71038;SDS011;58692;43.212;27.908;2023-05-09T09:18:56;9.70;;;3.70;;
71038;SDS011;58692;43.212;27.908;2023-05-09T09:21:22;8.80;;;4.22;;
71038;SDS011;58692;43.212;27.908;2023-05-09T09:23:50;8.27;;;3.63;;
71038;SDS011;58692;43.212;27.908;2023-05-09T09:26:19;9.23;;;4.25;;
71038;SDS011;58692;43.212;27.908;2023-05-09T09:28:48;12.50;;;4.23;;
71038;SDS011;58692;43.212;27.908;2023-05-09T09:31:21;9.68;;;4.20;;
71038;SDS011;58692;43.212;27.908;2023-05-09T09:33:48;9.35;;;4.50;;
71038;SDS011;58692;43.212;27.908;2023-05-09T09:36:15;10.38;;;4.25;;
71038;SDS011;58692;43.212;27.908;2023-05-09T09:38:41;8.88;;;4.28;;
71038;SDS011;58692;43.212;27.908;2023-05-09T09:41:07;11.20;;;4.83;;
71038;SDS011;58692;43.212;27.908;2023-05-09T09:43:35;10.10;;;4.60;;
71038;SDS011;58692;43.212;27.908;2023-05-09T09:46:01;7.72;;;4.50;;
71038;SDS011;58692;43.212;27.908;2023-05-09T09:48:37;9.07;;;4.38;;
71038;SDS011;58692;43.212;27.908;2023-05-09T09:51:07;8.90;;;4.50;;
71038;SDS011;58692;43.212;27.908;2023-05-09T09:53:42;8.60;;;4.40;;
71038;SDS011;58692;43.212;27.908;2023-05-09T09:56:09;10.27;;;4.28;;
71038;SDS011;58692;43.212;27.908;2023-05-09T09:58:35;10.27;;;4.75;;
71038;SDS011;58692;43.212;27.908;2023-05-09T10:01:09;11.57;;;4.60;;
71038;SDS011;58692;43.212;27.908;2023-05-09T10:03:41;12.95;;;5.03;;
71038;SDS011;58692;43.212;27.908;2023-05-09T10:06:09;9.57;;;4.68;;
71038;SDS011;58692;43.212;27.908;2023-05-09T10:08:36;11.02;;;5.13;;
71038;SDS011;58692;43.212;27.908;2023-05-09T10:11:01;10.17;;;4.43;;
71038;SDS011;58692;43.212;27.908;2023-05-09T10:13:28;8.82;;;4.13;;
71038;SDS011;58692;43.212;27.908;2023-05-09T10:15:54;10.55;;;3.70;;
71038;SDS011;58692;43.212;27.908;2023-05-09T10:18:24;12.18;;;4.05;;
71038;SDS011;58692;43.212;27.908;2023-05-09T10:21:00;7.20;;;3.43;;
71038;SDS011;58692;43.212;27.908;2023-05-09T10:23:29;7.15;;;3.50;;
71038;SDS011;58692;43.212;27.908;2023-05-09T10:28:39;9.45;;;3.33;;
71038;SDS011;58692;43.212;27.908;2023-05-09T10:33:41;7.60;;;2.90;;
71038;SDS011;58692;43.212;27.908;2023-05-09T10:36:11;9.45;;;3.20;;
71038;SDS011;58692;43.212;27.908;2023-05-09T10:38:39;9.70;;;3.60;;
71038;SDS011;58692;43.212;27.908;2023-05-09T10:41:05;8.43;;;3.42;;
71038;SDS011;58692;43.212;27.908;2023-05-09T10:43:34;9.82;;;3.92;;
71038;SDS011;58692;43.212;27.908;2023-05-09T10:46:03;8.90;;;3.23;;
71038;SDS011;58692;43.212;27.908;2023-05-09T10:48:31;8.13;;;3.03;;
71038;SDS011;58692;43.212;27.908;2023-05-09T10:51:06;7.05;;;3.42;;
71038;SDS011;58692;43.212;27.908;2023-05-09T10:59:04;6.60;;;3.40;;
71038;SDS011;58692;43.212;27.908;2023-05-09T11:01:30;7.30;;;3.80;;
71038;SDS011;58692;43.212;27.908;2023-05-09T11:04:09;9.38;;;4.30;;
71038;SDS011;58692;43.212;27.908;2023-05-09T11:12:07;8.85;;;3.28;;
71038;SDS011;58692;43.212;27.908;2023-05-09T11:17:03;8.90;;;3.90;;
71038;SDS011;58692;43.212;27.908;2023-05-09T11:21:59;7.82;;;3.72;;
71038;SDS011;58692;43.212;27.908;2023-05-09T11:24:37;8.40;;;3.67;;
71038;SDS011;58692;43.212;27.908;2023-05-09T11:27:05;7.10;;;3.50;;
71038;SDS011;58692;43.212;27.908;2023-05-09T11:29:50;11.80;;;3.78;;
71038;SDS011;58692;43.212;27.908;2023-05-09T11:32:19;9.18;;;3.97;;
71038;SDS011;58692;43.212;27.908;2023-05-09T11:34:46;10.25;;;3.63;;
71038;SDS011;58692;43.212;27.908;2023-05-09T11:37:13;7.47;;;3.50;;
71038;SDS011;58692;43.212;27.908;2023-05-09T11:42:23;9.23;;;4.03;;
71038;SDS011;58692;43.212;27.908;2023-05-09T11:44:50;9.60;;;4.15;;
71038;SDS011;58692;43.212;27.908;2023-05-09T11:47:22;10.67;;;4.33;;
71038;SDS011;58692;43.212;27.908;2023-05-09T11:49:48;11.07;;;4.30;;
71038;SDS011;58692;43.212;27.908;2023-05-09T11:52:15;9.75;;;4.20;;
71038;SDS011;58692;43.212;27.908;2023-05-09T11:54:42;8.48;;;4.53;;
71038;SDS011;58692;43.212;27.908;2023-05-09T11:57:09;9.73;;;4.53;;
71038;SDS011;58692;43.212;27.908;2023-05-09T11:59:35;10.63;;;4.67;;
71038;SDS011;58692;43.212;27.908;2023-05-09T12:02:03;7.63;;;3.73;;
71038;SDS011;58692;43.212;27.908;2023-05-09T12:04:30;11.00;;;4.25;;
71038;SDS011;58692;43.212;27.908;2023-05-09T12:06:59;9.68;;;4.60;;
71038;SDS011;58692;43.212;27.908;2023-05-09T12:09:29;11.60;;;4.60;;
71038;SDS011;58692;43.212;27.908;2023-05-09T12:12:12;8.90;;;4.40;;
71038;SDS011;58692;43.212;27.908;2023-05-09T12:14:39;8.67;;;3.97;;
71038;SDS011;58692;43.212;27.908;2023-05-09T12:17:15;9.55;;;4.07;;
71038;SDS011;58692;43.212;27.908;2023-05-09T12:19:47;8.07;;;3.55;;
71038;SDS011;58692;43.212;27.908;2023-05-09T12:22:25;8.45;;;3.80;;
71038;SDS011;58692;43.212;27.908;2023-05-09T12:24:54;8.60;;;3.80;;
71038;SDS011;58692;43.212;27.908;2023-05-09T12:27:22;9.23;;;3.57;;
71038;SDS011;58692;43.212;27.908;2023-05-09T12:29:51;9.48;;;3.88;;
71038;SDS011;58692;43.212;27.908;2023-05-09T12:32:17;8.07;;;3.80;;
71038;SDS011;58692;43.212;27.908;2023-05-09T12:34:43;9.70;;;4.00;;
71038;SDS011;58692;43.212;27.908;2023-05-09T12:37:15;9.15;;;3.75;;
71038;SDS011;58692;43.212;27.908;2023-05-09T12:39:51;9.67;;;3.77;;
71038;SDS011;58692;43.212;27.908;2023-05-09T12:42:34;9.68;;;4.50;;
71038;SDS011;58692;43.212;27.908;2023-05-09T12:45:00;8.00;;;3.47;;
71038;SDS011;58692;43.212;27.908;2023-05-09T12:47:27;8.85;;;3.05;;
71038;SDS011;58692;43.212;27.908;2023-05-09T12:49:56;8.77;;;2.70;;
71038;SDS011;58692;43.212;27.908;2023-05-09T12:52:23;9.10;;;2.67;;
71038;SDS011;58692;43.212;27.908;2023-05-09T12:54:51;9.68;;;3.22;;
71038;SDS011;58692;43.212;27.908;2023-05-09T12:57:21;7.28;;;2.80;;
71038;SDS011;58692;43.212;27.908;2023-05-09T12:59:48;8.52;;;2.92;;
71038;SDS011;58692;43.212;27.908;2023-05-09T13:02:14;10.17;;;3.00;;
71038;SDS011;58692;43.212;27.908;2023-05-09T13:04:39;12.57;;;3.67;;
71038;SDS011;58692;43.212;27.908;2023-05-09T13:07:08;10.03;;;2.80;;
71038;SDS011;58692;43.212;27.908;2023-05-09T13:09:35;11.48;;;3.20;;
71038;SDS011;58692;43.212;27.908;2023-05-09T13:12:01;10.10;;;3.20;;
71038;SDS011;58692;43.212;27.908;2023-05-09T13:14:36;8.80;;;3.30;;
71038;SDS011;58692;43.212;27.908;2023-05-09T13:17:02;7.95;;;3.00;;
71038;SDS011;58692;43.212;27.908;2023-05-09T13:19:35;6.10;;;2.80;;
71038;SDS011;58692;43.212;27.908;2023-05-09T13:22:22;9.73;;;3.60;;
71038;SDS011;58692;43.212;27.908;2023-05-09T13:24:48;7.45;;;2.90;;
71038;SDS011;58692;43.212;27.908;2023-05-09T13:27:13;10.07;;;3.40;;
71038;SDS011;58692;43.212;27.908;2023-05-09T13:29:40;9.07;;;3.15;;
71038;SDS011;58692;43.212;27.908;2023-05-09T13:32:06;16.83;;;3.23;;
71038;SDS011;58692;43.212;27.908;2023-05-09T13:34:32;8.63;;;3.10;;
71038;SDS011;58692;43.212;27.908;2023-05-09T13:37:01;7.82;;;2.70;;
71038;SDS011;58692;43.212;27.908;2023-05-09T13:39:26;5.88;;;2.90;;
71038;SDS011;58692;43.212;27.908;2023-05-09T13:41:52;12.38;;;2.70;;
71038;SDS011;58692;43.212;27.908;2023-05-09T13:44:21;9.60;;;2.83;;
71038;SDS011;58692;43.212;27.908;2023-05-09T13:46:48;7.55;;;2.40;;
71038;SDS011;58692;43.212;27.908;2023-05-09T13:49:14;7.78;;;2.22;;
71038;SDS011;58692;43.212;27.908;2023-05-09T13:51:39;7.78;;;2.42;;
71038;SDS011;58692;43.212;27.908;2023-05-09T13:54:05;5.47;;;2.10;;
71038;SDS011;58692;43.212;27.908;2023-05-09T13:56:36;7.85;;;2.85;;
71038;SDS011;58692;43.212;27.908;2023-05-09T13:59:09;9.07;;;2.65;;
71038;SDS011;58692;43.212;27.908;2023-05-09T14:01:37;7.43;;;2.70;;
71038;SDS011;58692;43.212;27.908;2023-05-09T14:04:23;7.70;;;2.47;;
71038;SDS011;58692;43.212;27.908;2023-05-09T14:06:53;10.70;;;2.70;;
71038;SDS011;58692;43.212;27.908;2023-05-09T14:09:20;10.27;;;3.03;;
71038;SDS011;58692;43.212;27.908;2023-05-09T14:11:48;8.90;;;3.50;;
71038;SDS011;58692;43.212;27.908;2023-05-09T14:14:16;9.90;;;2.80;;
71038;SDS011;58692;43.212;27.908;2023-05-09T14:16:42;9.37;;;3.13;;
71038;SDS011;58692;43.212;27.908;2023-05-09T14:19:08;7.45;;;2.90;;
71038;SDS011;58692;43.212;27.908;2023-05-09T14:21:35;9.65;;;3.55;;
71038;SDS011;58692;43.212;27.908;2023-05-09T14:24:01;10.57;;;3.60;;
71038;SDS011;58692;43.212;27.908;2023-05-09T14:26:27;8.43;;;3.33;;
71038;SDS011;58692;43.212;27.908;2023-05-09T14:28:52;7.82;;;3.50;;
71038;SDS011;58692;43.212;27.908;2023-05-09T14:31:18;7.23;;;3.60;;
71038;SDS011;58692;43.212;27.908;2023-05-09T14:33:44;8.07;;;3.67;;
71038;SDS011;58692;43.212;27.908;2023-05-09T14:36:11;8.32;;;3.65;;
71038;SDS011;58692;43.212;27.908;2023-05-09T14:38:39;15.18;;;4.15;;
71038;SDS011;58692;43.212;27.908;2023-05-09T14:41:05;7.80;;;3.55;;
71038;SDS011;58692;43.212;27.908;2023-05-09T14:43:31;10.07;;;4.33;;
71038;SDS011;58692;43.212;27.908;2023-05-09T14:45:57;16.23;;;4.57;;
71038;SDS011;58692;43.212;27.908;2023-05-09T14:48:23;10.60;;;4.07;;
71038;SDS011;58692;43.212;27.908;2023-05-09T14:50:48;9.83;;;3.97;;
71038;SDS011;58692;43.212;27.908;2023-05-09T14:53:21;8.77;;;4.10;;
71038;SDS011;58692;43.212;27.908;2023-05-09T14:55:47;9.55;;;4.13;;
71038;SDS011;58692;43.212;27.908;2023-05-09T14:58:14;10.90;;;4.10;;
71038;SDS011;58692;43.212;27.908;2023-05-09T15:00:41;10.57;;;3.65;;
71038;SDS011;58692;43.212;27.908;2023-05-09T15:03:18;7.63;;;3.58;;
71038;SDS011;58692;43.212;27.908;2023-05-09T15:05:44;8.32;;;3.65;;
71038;SDS011;58692;43.212;27.908;2023-05-09T15:08:10;9.90;;;4.93;;